createdAt,value
2019-02-07T00:00:44.719Z,17.70
2019-02-07T00:01:44.672Z,18.70
2019-02-07T00:02:44.637Z,17.40
2019-02-07T00:03:44.594Z,21.30
2019-02-07T00:04:44.551Z,17.70
2019-02-07T00:05:44.508Z,18.30
2019-02-07T00:06:44.464Z,17.00
2019-02-07T00:07:44.425Z,18.30
2019-02-07T00:08:44.386Z,18.00
2019-02-07T00:09:44.347Z,15.30
2019-02-07T00:10:44.303Z,18.40
2019-02-07T00:11:44.262Z,17.70
2019-02-07T00:12:44.218Z,16.10
2019-02-07T00:13:44.174Z,16.20
2019-02-07T00:14:44.133Z,16.70
2019-02-07T00:15:44.097Z,19.00
2019-02-07T00:16:44.053Z,17.80
2019-02-07T00:17:44.012Z,16.30
2019-02-07T00:18:43.964Z,15.70
2019-02-07T00:19:43.924Z,16.00
2019-02-07T00:20:43.886Z,16.60
2019-02-07T00:21:43.845Z,17.00
2019-02-07T00:22:43.803Z,16.20
2019-02-07T00:23:43.759Z,17.40
2019-02-07T00:24:43.717Z,17.50
2019-02-07T00:25:43.679Z,16.70
2019-02-07T00:26:43.631Z,15.20
2019-02-07T00:27:43.590Z,17.40
2019-02-07T00:28:43.555Z,15.20
2019-02-07T00:29:43.515Z,15.50
2019-02-07T00:30:43.469Z,16.10
2019-02-07T00:31:43.425Z,15.90
2019-02-07T00:32:43.383Z,16.60
2019-02-07T00:33:43.337Z,15.70
2019-02-07T00:34:43.306Z,16.00
2019-02-07T00:35:43.259Z,17.30
2019-02-07T00:36:43.216Z,16.40
2019-02-07T00:37:43.173Z,15.40
2019-02-07T00:38:43.138Z,16.40
2019-02-07T00:39:43.088Z,14.30
2019-02-07T00:40:43.054Z,15.70
2019-02-07T00:41:43.011Z,14.90
2019-02-07T00:42:42.968Z,15.50
2019-02-07T00:43:42.927Z,14.50
2019-02-07T00:44:50.419Z,15.30
2019-02-07T00:45:42.841Z,15.10
2019-02-07T00:46:42.796Z,14.30
2019-02-07T00:47:42.760Z,15.30
2019-02-07T00:48:42.718Z,17.20
2019-02-07T00:49:42.678Z,15.30
2019-02-07T00:50:42.631Z,15.80
2019-02-07T00:51:42.600Z,15.70
2019-02-07T00:52:42.555Z,16.00
2019-02-07T00:53:42.516Z,15.80
2019-02-07T00:54:42.473Z,12.70
2019-02-07T00:55:42.427Z,14.30
2019-02-07T00:56:42.384Z,16.00
2019-02-07T00:57:42.342Z,13.70
2019-02-07T00:58:42.301Z,16.20
2019-02-07T00:59:42.257Z,14.00
2019-02-07T01:00:42.219Z,16.50
2019-02-07T01:01:42.184Z,15.80
2019-02-07T01:02:42.137Z,14.10
2019-02-07T01:03:42.093Z,14.90
2019-02-07T01:04:42.052Z,13.80
2019-02-07T01:05:42.007Z,13.40
2019-02-07T01:06:41.971Z,15.50
2019-02-07T01:07:41.927Z,13.50
2019-02-07T01:08:41.885Z,14.30
2019-02-07T01:09:41.842Z,14.00
2019-02-07T01:10:41.899Z,12.80
2019-02-07T01:11:41.802Z,15.20
2019-02-07T01:12:41.721Z,15.10
2019-02-07T01:13:41.680Z,13.50
2019-02-07T01:14:41.641Z,13.30
2019-02-07T01:15:41.594Z,14.10
2019-02-07T01:16:41.552Z,13.00
2019-02-07T01:17:41.508Z,13.70
2019-02-07T01:18:41.465Z,14.30
2019-02-07T01:19:41.427Z,14.10
2019-02-07T01:20:41.389Z,14.40
2019-02-07T01:21:41.375Z,13.50
2019-02-07T01:22:41.299Z,13.90
2019-02-07T01:23:41.261Z,13.40
2019-02-07T01:24:41.228Z,14.00
2019-02-07T01:25:41.183Z,13.40
2019-02-07T01:26:41.141Z,13.30
2019-02-07T01:27:41.097Z,14.30
2019-02-07T01:28:41.053Z,15.00
2019-02-07T01:29:41.011Z,16.00
2019-02-07T01:30:40.967Z,14.50
2019-02-07T01:31:40.931Z,14.60
2019-02-07T01:32:40.903Z,14.30
2019-02-07T01:33:40.855Z,13.60
2019-02-07T01:34:40.807Z,14.40
2019-02-07T01:35:40.763Z,14.80
2019-02-07T01:36:40.725Z,16.60
2019-02-07T01:37:40.678Z,14.10
2019-02-07T01:38:40.639Z,14.20
2019-02-07T01:39:40.597Z,15.10
2019-02-07T01:40:40.557Z,15.50
2019-02-07T01:41:40.513Z,14.40
2019-02-07T01:42:40.472Z,13.50
2019-02-07T01:43:40.427Z,14.90
2019-02-07T01:44:40.390Z,17.10
2019-02-07T01:45:40.349Z,13.30
2019-02-07T01:46:40.309Z,14.80
2019-02-07T01:47:40.264Z,14.80
2019-02-07T01:48:40.222Z,14.50
2019-02-07T01:49:40.178Z,14.50
2019-02-07T01:50:40.140Z,13.30
2019-02-07T01:51:40.095Z,14.20
2019-02-07T01:52:40.060Z,14.10
2019-02-07T01:53:40.018Z,14.60
2019-02-07T01:54:39.970Z,14.00
2019-02-07T01:55:39.927Z,13.00
2019-02-07T01:56:39.888Z,14.50
2019-02-07T01:57:39.849Z,13.80
2019-02-07T01:58:39.811Z,14.70
2019-02-07T01:59:39.764Z,13.80
2019-02-07T02:00:39.720Z,13.40
2019-02-07T02:01:39.683Z,14.10
2019-02-07T02:02:39.638Z,12.80
2019-02-07T02:03:39.596Z,11.50
2019-02-07T02:04:39.559Z,13.30
2019-02-07T02:05:39.518Z,13.70
2019-02-07T02:06:39.477Z,12.50
2019-02-07T02:07:39.432Z,11.90
2019-02-07T02:08:39.395Z,12.50
2019-02-07T02:09:39.347Z,12.60
2019-02-07T02:10:39.312Z,12.50
2019-02-07T02:11:39.270Z,10.90
2019-02-07T02:12:39.222Z,11.70
2019-02-07T02:13:39.184Z,14.30
2019-02-07T02:14:39.135Z,11.00
2019-02-07T02:15:39.096Z,11.00
2019-02-07T02:16:39.059Z,11.10
2019-02-07T02:17:39.018Z,12.30
2019-02-07T02:18:38.970Z,12.90
2019-02-07T02:19:38.929Z,11.90
2019-02-07T02:20:38.892Z,13.00
2019-02-07T02:21:38.872Z,11.40
2019-02-07T02:22:38.811Z,11.60
2019-02-07T02:23:38.786Z,12.80
2019-02-07T02:24:38.725Z,11.50
2019-02-07T02:25:47.567Z,10.70
2019-02-07T02:27:52.101Z,11.60
2019-02-07T02:30:25.453Z,11.10
2019-02-07T02:31:24.928Z,10.90
2019-02-07T02:33:20.627Z,11.30
2019-02-07T04:06:06.191Z,15.50
2019-02-07T04:07:06.112Z,13.40
2019-02-07T04:08:06.053Z,15.50
2019-02-07T04:09:06.021Z,18.40
2019-02-07T04:10:06.026Z,19.30
2019-02-07T04:11:05.922Z,15.80
2019-02-07T04:12:05.994Z,17.50
2019-02-07T04:13:05.834Z,15.90
2019-02-07T04:14:05.787Z,15.50
2019-02-07T04:15:05.744Z,16.80
2019-02-07T04:16:14.706Z,17.30
2019-02-07T04:17:05.662Z,17.20
2019-02-07T04:18:05.617Z,15.10
2019-02-07T04:19:05.573Z,17.30
2019-02-07T04:20:05.539Z,16.00
2019-02-07T04:21:05.485Z,16.00
2019-02-07T04:22:05.445Z,17.00
2019-02-07T04:23:05.410Z,15.30
2019-02-07T04:24:05.404Z,15.60
2019-02-07T04:25:05.314Z,16.50
2019-02-07T04:26:05.275Z,13.90
2019-02-07T04:27:05.235Z,16.30
2019-02-07T04:28:05.189Z,18.10
2019-02-07T04:29:05.150Z,15.60
2019-02-07T04:30:05.107Z,14.90
2019-02-07T04:31:05.062Z,15.40
2019-02-07T04:32:05.023Z,13.20
2019-02-07T04:33:04.976Z,15.70
2019-02-07T04:34:04.933Z,13.30
2019-02-07T04:35:04.928Z,12.50
2019-02-07T04:36:04.863Z,12.70
2019-02-07T04:37:04.819Z,13.40
2019-02-07T04:38:04.777Z,14.20
2019-02-07T04:39:04.731Z,12.60
2019-02-07T04:40:04.684Z,11.90
2019-02-07T04:41:04.645Z,14.70
2019-02-07T04:42:04.605Z,12.80
2019-02-07T04:43:04.562Z,14.20
2019-02-07T04:44:04.521Z,11.20
2019-02-07T04:45:04.473Z,13.20
2019-02-07T04:46:04.433Z,11.80
2019-02-07T04:47:04.398Z,11.70
2019-02-07T04:48:04.349Z,12.70
2019-02-07T04:49:04.315Z,11.80
2019-02-07T04:50:04.268Z,12.70
2019-02-07T04:51:04.241Z,11.40
2019-02-07T04:52:04.187Z,12.10
2019-02-07T04:53:04.144Z,12.20
2019-02-07T04:54:04.101Z,12.10
2019-02-07T04:55:04.064Z,11.90
2019-02-07T04:56:04.019Z,11.70
2019-02-07T04:57:03.974Z,12.10
2019-02-07T04:58:03.933Z,11.80
2019-02-07T04:59:03.890Z,11.50
2019-02-07T05:00:03.848Z,13.50
2019-02-07T05:01:03.813Z,12.70
2019-02-07T05:02:03.770Z,12.00
2019-02-07T05:03:03.730Z,12.20
2019-02-07T05:04:03.691Z,12.00
2019-02-07T05:05:03.644Z,14.20
2019-02-07T05:06:03.601Z,11.40
2019-02-07T05:07:03.556Z,14.10
2019-02-07T05:08:03.513Z,14.70
2019-02-07T05:09:03.482Z,13.70
2019-02-07T05:10:03.434Z,14.80
2019-02-07T05:11:03.389Z,14.80
2019-02-07T05:12:03.350Z,13.70
2019-02-07T05:13:03.315Z,14.80
2019-02-07T05:14:03.286Z,14.50
2019-02-07T05:15:03.226Z,14.00
2019-02-07T05:16:03.187Z,13.60
2019-02-07T05:17:03.141Z,14.30
2019-02-07T05:18:03.097Z,14.30
2019-02-07T05:19:03.056Z,14.30
2019-02-07T05:20:03.019Z,15.70
2019-02-07T05:21:02.979Z,15.80
2019-02-07T05:22:02.932Z,15.80
2019-02-07T05:23:02.896Z,13.70
2019-02-07T05:24:02.853Z,15.40
2019-02-07T05:25:02.807Z,16.00
2019-02-07T05:26:02.765Z,14.80
2019-02-07T05:27:02.725Z,17.00
2019-02-07T05:28:02.688Z,15.00
2019-02-07T05:29:02.638Z,15.50
2019-02-07T05:30:02.601Z,15.70
2019-02-07T05:31:02.558Z,14.30
2019-02-07T05:32:02.513Z,15.00
2019-02-07T05:33:02.482Z,14.90
2019-02-07T05:34:02.436Z,14.70
2019-02-07T05:35:02.392Z,15.10
2019-02-07T05:36:02.352Z,14.90
2019-02-07T05:37:02.309Z,14.00
2019-02-07T05:38:02.267Z,15.00
2019-02-07T05:39:02.222Z,14.00
2019-02-07T05:40:02.188Z,13.30
2019-02-07T05:41:02.144Z,15.00
2019-02-07T05:42:02.097Z,13.40
2019-02-07T05:43:02.056Z,13.00
2019-02-07T05:44:02.019Z,12.00
2019-02-07T05:45:01.983Z,15.00
2019-02-07T05:46:01.951Z,13.00
2019-02-07T05:47:01.896Z,13.80
2019-02-07T05:48:01.851Z,14.00
2019-02-07T05:49:01.805Z,14.70
2019-02-07T05:50:01.766Z,13.50
2019-02-07T05:51:01.721Z,13.80
2019-02-07T05:52:01.680Z,14.70
2019-02-07T05:53:01.642Z,14.10
2019-02-07T05:54:01.605Z,12.30
2019-02-07T05:55:01.571Z,14.60
2019-02-07T05:56:01.522Z,12.70
2019-02-07T05:57:01.472Z,12.40
2019-02-07T05:58:10.088Z,11.50
2019-02-07T06:00:05.844Z,12.30
2019-02-07T06:01:05.765Z,12.40
2019-02-07T06:02:05.725Z,13.20
2019-02-07T06:03:05.686Z,13.60
2019-02-07T06:04:05.641Z,13.20
2019-02-07T06:05:05.616Z,14.40
2019-02-07T06:06:05.561Z,13.20
2019-02-07T06:07:05.520Z,13.40
2019-02-07T06:08:05.480Z,14.30
2019-02-07T06:09:05.437Z,14.10
2019-02-07T06:10:05.392Z,14.10
2019-02-07T06:11:05.354Z,15.20
2019-02-07T06:12:05.314Z,12.70
2019-02-07T06:13:05.265Z,13.30
2019-02-07T06:14:05.229Z,13.10
2019-02-07T06:15:05.183Z,10.90
2019-02-07T06:16:05.141Z,12.20
2019-02-07T06:17:05.110Z,12.80
2019-02-07T06:18:05.063Z,12.10
2019-02-07T06:19:05.022Z,12.20
2019-02-07T06:20:04.981Z,12.80
2019-02-07T06:21:04.933Z,12.90
2019-02-07T06:22:04.898Z,11.70
2019-02-07T06:23:04.885Z,12.10
2019-02-07T06:24:04.818Z,12.80
2019-02-07T06:25:04.801Z,13.60
2019-02-07T06:26:04.729Z,12.40
2019-02-07T06:27:04.697Z,11.50
2019-02-07T06:28:04.641Z,12.60
2019-02-07T06:29:04.607Z,13.00
2019-02-07T06:30:04.563Z,13.00
2019-02-07T06:31:04.521Z,12.60
2019-02-07T06:32:04.482Z,13.60
2019-02-07T06:33:04.433Z,13.30
2019-02-07T06:34:07.356Z,13.90
2019-02-07T06:35:04.355Z,11.80
2019-02-07T06:36:04.321Z,12.30
2019-02-07T06:37:04.275Z,11.60
2019-02-07T06:38:04.232Z,11.50
2019-02-07T06:39:04.190Z,11.00
2019-02-07T06:40:04.150Z,10.90
2019-02-07T06:41:04.103Z,11.40
2019-02-07T06:42:04.061Z,10.00
2019-02-07T06:43:04.026Z,10.10
2019-02-07T06:44:03.983Z,10.60
2019-02-07T06:45:06.141Z,11.40
2019-02-07T06:46:03.906Z,11.60
2019-02-07T06:47:13.302Z,11.80
2019-02-07T06:48:03.809Z,10.90
2019-02-07T06:49:03.774Z,12.00
2019-02-07T06:50:03.736Z,11.40
2019-02-07T06:51:03.689Z,11.30
2019-02-07T06:52:03.651Z,11.50
2019-02-07T06:53:03.610Z,11.20
2019-02-07T06:54:03.563Z,11.00
2019-02-07T06:55:03.521Z,13.20
2019-02-07T06:56:03.477Z,12.00
2019-02-07T06:57:03.442Z,11.80
2019-02-07T06:58:03.399Z,11.00
2019-02-07T06:59:03.355Z,10.60
2019-02-07T07:00:03.311Z,12.40
2019-02-07T07:01:03.287Z,11.70
2019-02-07T07:02:03.232Z,10.90
2019-02-07T07:03:03.191Z,10.90
2019-02-07T07:04:03.154Z,11.00
2019-02-07T07:05:03.102Z,10.80
2019-02-07T07:06:03.062Z,10.00
2019-02-07T07:07:03.037Z,10.90
2019-02-07T07:08:02.980Z,10.60
2019-02-07T07:09:02.942Z,9.20
2019-02-07T07:10:02.899Z,10.10
2019-02-07T07:11:02.858Z,10.70
2019-02-07T07:12:02.819Z,10.80
2019-02-07T07:13:02.774Z,10.60
2019-02-07T07:14:02.731Z,9.70
2019-02-07T07:15:02.691Z,8.00
2019-02-07T07:16:02.654Z,7.70
2019-02-07T07:17:02.603Z,7.70
2019-02-07T07:18:02.564Z,7.50
2019-02-07T07:19:02.524Z,7.40
2019-02-07T07:20:02.479Z,9.00
2019-02-07T07:21:02.444Z,6.90
2019-02-07T07:22:02.410Z,7.30
2019-02-07T07:23:02.358Z,8.10
2019-02-07T07:24:02.319Z,7.00
2019-02-07T07:25:02.273Z,7.80
2019-02-07T07:26:02.231Z,8.10
2019-02-07T07:27:02.191Z,6.90
2019-02-07T07:28:02.150Z,7.40
2019-02-07T07:29:02.130Z,7.10
2019-02-07T07:30:02.074Z,7.60
2019-02-07T07:31:02.031Z,7.20
2019-02-07T07:32:01.982Z,6.50
2019-02-07T07:33:01.949Z,6.20
2019-02-07T07:34:01.902Z,7.10
2019-02-07T07:35:01.862Z,6.30
2019-02-07T07:36:01.823Z,7.10
2019-02-07T07:37:01.773Z,6.30
2019-02-07T07:38:01.734Z,6.20
2019-02-07T07:39:01.691Z,6.50
2019-02-07T07:40:01.652Z,7.10
2019-02-07T07:41:01.624Z,6.30
2019-02-07T07:42:01.573Z,6.70
2019-02-07T07:43:01.535Z,6.30
2019-02-07T07:44:01.489Z,6.40
2019-02-07T07:45:01.465Z,6.10
2019-02-07T07:46:01.402Z,6.00
2019-02-07T07:47:01.366Z,5.30
2019-02-07T07:48:01.322Z,5.90
2019-02-07T07:49:01.279Z,6.60
2019-02-07T07:50:01.237Z,6.00
2019-02-07T07:51:01.194Z,6.70
2019-02-07T07:52:01.156Z,6.00
2019-02-07T07:53:01.116Z,5.70
2019-02-07T07:54:01.077Z,6.30
2019-02-07T07:55:01.034Z,5.30
2019-02-07T07:56:00.991Z,5.90
2019-02-07T07:57:00.946Z,5.90
2019-02-07T07:58:00.903Z,5.50
2019-02-07T07:59:00.869Z,5.40
2019-02-07T08:00:00.828Z,5.20
2019-02-07T08:01:00.783Z,5.20
2019-02-07T08:02:00.746Z,4.60
2019-02-07T08:03:00.697Z,4.70
2019-02-07T08:04:00.658Z,5.90
2019-02-07T08:05:00.621Z,5.00
2019-02-07T08:06:00.579Z,4.70
2019-02-07T08:07:00.538Z,5.10
2019-02-07T08:08:00.495Z,5.40
2019-02-07T08:09:00.455Z,5.00
2019-02-07T08:10:00.406Z,4.40
2019-02-07T08:11:00.368Z,4.40
2019-02-07T08:12:00.333Z,5.20
2019-02-07T08:13:00.286Z,4.90
2019-02-07T08:14:00.251Z,5.80
2019-02-07T08:15:00.331Z,5.40
2019-02-07T08:16:00.190Z,5.40
2019-02-07T08:17:00.121Z,4.90
2019-02-07T08:18:00.076Z,5.00
2019-02-07T08:19:00.047Z,5.30
2019-02-07T08:20:00.001Z,5.30
2019-02-07T08:20:59.954Z,5.30
2019-02-07T08:21:59.910Z,4.90
2019-02-07T08:22:59.870Z,5.40
2019-02-07T08:23:59.833Z,5.30
2019-02-07T08:24:59.791Z,5.80
2019-02-07T08:25:59.753Z,6.10
2019-02-07T08:26:59.728Z,6.70
2019-02-07T08:27:59.669Z,6.50
2019-02-07T08:28:59.626Z,6.40
2019-02-07T08:29:59.581Z,6.20
2019-02-07T08:30:59.540Z,6.00
2019-02-07T08:31:59.501Z,6.30
2019-02-07T08:32:59.462Z,6.50
2019-02-07T08:33:59.421Z,6.30
2019-02-07T08:34:59.374Z,6.30
2019-02-07T08:35:59.336Z,5.90
2019-02-07T08:36:59.297Z,6.10
2019-02-07T08:37:59.256Z,6.20
2019-02-07T08:38:59.216Z,6.10
2019-02-07T08:39:59.178Z,5.80
2019-02-07T08:40:59.129Z,6.50
2019-02-07T08:41:59.087Z,6.00
2019-02-07T08:42:59.045Z,5.90
2019-02-07T08:43:59.059Z,6.00
2019-02-07T08:44:58.995Z,6.40
2019-02-07T08:45:58.934Z,6.40
2019-02-07T08:46:58.887Z,6.40
2019-02-07T08:47:59.071Z,6.30
2019-02-07T08:49:01.033Z,6.90
2019-02-07T08:49:58.757Z,6.80
2019-02-07T08:50:58.728Z,6.80
2019-02-07T08:51:58.685Z,6.60
2019-02-07T08:52:58.636Z,7.50
2019-02-07T08:53:58.593Z,7.00
2019-02-07T08:54:58.554Z,6.80
2019-02-07T08:55:58.514Z,7.40
2019-02-07T08:56:58.473Z,7.60
2019-02-07T08:57:58.436Z,7.70
2019-02-07T08:58:58.392Z,7.20
2019-02-07T08:59:58.351Z,7.90
2019-02-07T09:00:58.306Z,8.70
2019-02-07T09:01:58.262Z,7.40
2019-02-07T09:02:58.222Z,8.30
2019-02-07T09:03:58.188Z,8.40
2019-02-07T09:04:58.150Z,7.10
2019-02-07T09:05:58.111Z,7.40
2019-02-07T09:06:58.057Z,8.00
2019-02-07T09:07:58.056Z,7.50
2019-02-07T09:08:57.978Z,8.40
2019-02-07T09:09:57.939Z,8.40
2019-02-07T09:10:57.898Z,7.40
2019-02-07T09:11:57.858Z,8.00
2019-02-07T09:12:57.811Z,7.50
2019-02-07T09:13:57.770Z,7.10
2019-02-07T09:14:57.729Z,7.80
2019-02-07T09:15:57.690Z,7.50
2019-02-07T09:16:57.649Z,7.20
2019-02-07T09:17:57.610Z,7.10
2019-02-07T09:18:57.571Z,6.60
2019-02-07T09:19:57.527Z,7.00
2019-02-07T09:20:57.484Z,6.50
2019-02-07T09:21:57.441Z,7.00
2019-02-07T09:22:57.405Z,6.50
2019-02-07T09:23:57.369Z,6.70
2019-02-07T09:24:57.319Z,6.10
2019-02-07T09:25:57.276Z,7.50
2019-02-07T09:26:57.235Z,6.70
2019-02-07T09:27:57.203Z,6.70
2019-02-07T09:28:57.159Z,6.70
2019-02-07T09:29:57.118Z,6.50
2019-02-07T09:30:57.078Z,6.10
2019-02-07T09:31:57.036Z,5.90
2019-02-07T09:32:56.992Z,7.80
2019-02-07T09:33:56.949Z,5.60
2019-02-07T09:34:56.911Z,7.10
2019-02-07T09:36:04.889Z,6.40
2019-02-07T09:36:56.830Z,6.50
2019-02-07T09:37:56.792Z,5.90
2019-02-07T09:38:56.744Z,5.60
2019-02-07T09:39:56.709Z,6.70
2019-02-07T09:40:56.669Z,6.60
2019-02-07T09:41:56.628Z,5.60
2019-02-07T09:42:56.588Z,4.90
2019-02-07T09:43:56.546Z,4.90
2019-02-07T09:44:56.503Z,4.50
2019-02-07T09:45:56.460Z,4.60
2019-02-07T09:46:56.418Z,5.00
2019-02-07T09:47:56.381Z,4.30
2019-02-07T09:48:56.345Z,4.30
2019-02-07T09:49:56.303Z,4.00
2019-02-07T09:50:56.262Z,5.60
2019-02-07T09:51:56.221Z,4.30
2019-02-07T09:52:56.178Z,4.50
2019-02-07T09:53:56.135Z,5.60
2019-02-07T09:54:56.100Z,4.60
2019-02-07T09:55:56.057Z,4.70
2019-02-07T09:56:56.016Z,7.40
2019-02-07T09:57:55.972Z,3.80
2019-02-07T09:58:55.933Z,6.10
2019-02-07T09:59:55.895Z,4.70
2019-02-07T10:00:55.856Z,4.90
2019-02-07T10:01:55.819Z,7.70
2019-02-07T10:02:55.777Z,8.60
2019-02-07T10:03:55.739Z,5.60
2019-02-07T10:04:55.691Z,6.40
2019-02-07T10:19:27.854Z,6.00
2019-02-07T10:20:27.782Z,8.20
2019-02-07T10:21:27.736Z,7.40
2019-02-07T10:22:27.703Z,11.30
2019-02-07T10:23:27.655Z,8.90
2019-02-07T10:24:27.613Z,11.80
2019-02-07T10:25:27.569Z,13.30
2019-02-07T10:26:27.526Z,10.00
2019-02-07T10:27:27.480Z,12.10
2019-02-07T10:28:27.434Z,9.20
2019-02-07T10:29:27.400Z,9.60
2019-02-07T10:30:27.357Z,9.90
2019-02-07T10:31:27.316Z,9.50
2019-02-07T10:32:27.268Z,10.00
2019-02-07T10:33:27.226Z,10.90
2019-02-07T10:34:27.188Z,9.60
2019-02-07T10:35:27.148Z,11.20
2019-02-07T10:36:27.108Z,14.50
2019-02-07T10:37:27.068Z,16.60
2019-02-07T10:38:27.025Z,11.80
2019-02-07T10:39:26.987Z,9.60
2019-02-07T10:40:26.941Z,11.60
2019-02-07T10:41:26.902Z,12.70
2019-02-07T10:42:26.861Z,12.80
2019-02-07T10:43:26.824Z,13.90
2019-02-07T10:44:26.870Z,14.70
2019-02-07T10:45:26.738Z,13.00
2019-02-07T10:46:26.698Z,11.30
2019-02-07T10:47:26.660Z,11.80
2019-02-07T10:48:26.624Z,15.90
2019-02-07T10:49:26.581Z,11.80
2019-02-07T10:50:26.539Z,16.50
2019-02-07T10:51:26.496Z,12.30
2019-02-07T10:52:26.454Z,11.40
2019-02-07T10:53:26.417Z,13.70
2019-02-07T10:54:26.377Z,12.40
2019-02-07T10:55:26.339Z,14.40
2019-02-07T10:56:26.297Z,15.00
2019-02-07T10:57:26.257Z,11.20
2019-02-07T10:58:26.219Z,13.50
2019-02-07T10:59:26.177Z,11.50
2019-02-07T11:00:26.135Z,20.70
2019-02-07T11:01:26.096Z,13.60
2019-02-07T11:02:26.059Z,17.10
2019-02-07T11:03:26.012Z,11.40
2019-02-07T11:04:25.977Z,13.70
2019-02-07T11:05:25.934Z,12.10
2019-02-07T11:06:25.899Z,14.00
2019-02-07T11:07:25.857Z,14.20
2019-02-07T11:08:25.815Z,10.90
2019-02-07T11:09:25.776Z,17.50
2019-02-07T11:10:25.739Z,14.30
2019-02-07T11:11:25.702Z,14.50
2019-02-07T11:12:25.654Z,14.70
2019-02-07T11:13:25.617Z,14.60
2019-02-07T11:14:25.592Z,17.30
2019-02-07T11:15:25.538Z,17.30
2019-02-07T11:16:25.497Z,11.20
2019-02-07T11:17:25.455Z,14.70
2019-02-07T11:18:25.412Z,15.40
2019-02-07T11:19:25.380Z,14.30
2019-02-07T11:20:25.337Z,17.10
2019-02-07T11:21:25.296Z,15.90
2019-02-07T11:22:25.258Z,14.20
2019-02-07T11:23:25.214Z,16.90
2019-02-07T11:24:25.175Z,16.40
2019-02-07T11:25:25.135Z,16.70
2019-02-07T11:26:25.096Z,12.50
2019-02-07T11:27:25.060Z,13.00
2019-02-07T11:28:25.019Z,10.50
2019-02-07T11:29:24.985Z,13.50
2019-02-07T11:30:24.942Z,14.50
2019-02-07T11:31:24.917Z,12.10
2019-02-07T11:32:24.855Z,12.90
2019-02-07T11:33:24.818Z,16.40
2019-02-07T11:34:24.782Z,15.70
2019-02-07T11:35:24.735Z,15.50
2019-02-07T11:36:24.698Z,9.80
2019-02-07T11:37:24.654Z,16.90
2019-02-07T11:38:24.617Z,14.70
2019-02-07T11:39:24.600Z,13.30
2019-02-07T11:40:24.542Z,11.20
2019-02-07T11:41:24.503Z,11.80
2019-02-07T11:42:24.462Z,14.80
2019-02-07T11:43:24.416Z,14.90
2019-02-07T11:44:24.386Z,16.40
2019-02-07T11:45:24.341Z,11.40
2019-02-07T11:46:24.298Z,13.00
2019-02-07T11:47:24.262Z,13.10
2019-02-07T11:48:24.231Z,15.30
2019-02-07T11:49:24.181Z,11.00
2019-02-07T11:50:24.139Z,12.20
2019-02-07T11:51:24.104Z,11.10
2019-02-07T11:52:24.064Z,14.10
2019-02-07T11:53:24.023Z,15.50
2019-02-07T11:54:23.985Z,17.00
2019-02-07T11:55:25.112Z,14.20
2019-02-07T11:56:23.905Z,14.40
2019-02-07T11:57:23.863Z,13.80
2019-02-07T11:58:32.628Z,14.70
2019-02-07T12:00:28.348Z,12.80
2019-02-07T12:01:28.313Z,15.50
2019-02-07T12:02:28.169Z,14.40
2019-02-07T12:03:28.295Z,14.30
2019-02-07T12:04:28.088Z,15.10
2019-02-07T12:05:28.042Z,17.70
2019-02-07T12:06:28.002Z,13.40
2019-02-07T12:07:27.970Z,16.10
2019-02-07T12:08:27.923Z,12.90
2019-02-07T12:09:27.881Z,17.90
2019-02-07T12:10:27.847Z,11.00
2019-02-07T12:11:27.802Z,16.70
2019-02-07T12:12:27.762Z,12.80
2019-02-07T12:13:27.726Z,18.80
2019-02-07T12:14:27.688Z,12.10
2019-02-07T12:15:27.653Z,13.10
2019-02-07T12:16:27.629Z,12.70
2019-02-07T12:17:27.563Z,12.90
2019-02-07T12:18:27.521Z,12.50
2019-02-07T12:19:27.485Z,11.40
2019-02-07T12:20:27.443Z,14.00
2019-02-07T12:21:27.410Z,11.30
2019-02-07T12:22:27.368Z,13.00
2019-02-07T12:23:27.323Z,12.30
2019-02-07T12:24:27.285Z,16.20
2019-02-07T12:25:27.252Z,15.60
2019-02-07T12:26:27.214Z,9.20
2019-02-07T12:27:27.171Z,11.50
2019-02-07T12:28:27.128Z,13.50
2019-02-07T12:29:27.090Z,15.10
2019-02-07T12:30:27.050Z,13.00
2019-02-07T12:31:27.006Z,11.20
2019-02-07T12:32:26.968Z,10.80
2019-02-07T12:33:26.931Z,13.80
2019-02-07T12:34:26.894Z,13.50
2019-02-07T12:35:26.856Z,15.80
2019-02-07T12:36:26.811Z,13.60
2019-02-07T12:37:26.777Z,18.80
2019-02-07T12:38:26.727Z,11.70
2019-02-07T12:39:26.696Z,13.20
2019-02-07T12:40:26.654Z,13.00
2019-02-07T12:41:26.614Z,12.50
2019-02-07T12:42:26.605Z,9.30
2019-02-07T12:43:26.528Z,13.60
2019-02-07T12:44:27.496Z,15.20
2019-02-07T12:45:26.455Z,12.10
2019-02-07T12:46:26.413Z,12.30
2019-02-07T12:47:26.381Z,11.60
2019-02-07T12:48:26.350Z,13.80
2019-02-07T12:49:29.216Z,12.90
2019-02-07T12:50:26.256Z,13.80
2019-02-07T12:51:26.215Z,12.10
2019-02-07T12:52:26.183Z,12.00
2019-02-07T12:53:26.141Z,9.40
2019-02-07T12:54:26.099Z,10.50
2019-02-07T12:55:26.880Z,13.30
2019-02-07T12:56:26.017Z,12.60
2019-02-07T12:57:25.981Z,13.10
2019-02-07T12:58:25.941Z,17.20
2019-02-07T12:59:25.917Z,14.00
2019-02-07T13:00:25.859Z,11.80
2019-02-07T13:01:25.827Z,13.70
2019-02-07T13:02:25.784Z,12.30
2019-02-07T13:03:25.765Z,15.90
2019-02-07T13:04:25.701Z,12.90
2019-02-07T13:05:25.716Z,13.40
2019-02-07T13:06:25.754Z,11.60
2019-02-07T13:07:25.591Z,13.40
2019-02-07T13:08:25.569Z,13.00
2019-02-07T13:09:25.517Z,12.40
2019-02-07T13:10:25.521Z,12.70
2019-02-07T13:11:25.512Z,12.60
2019-02-07T13:12:25.443Z,13.20
2019-02-07T13:13:25.383Z,14.40
2019-02-07T13:14:25.360Z,13.90
2019-02-07T13:15:25.433Z,13.30
2019-02-07T13:16:25.300Z,11.00
2019-02-07T13:17:25.240Z,12.10
2019-02-07T13:18:25.185Z,10.00
2019-02-07T13:19:25.124Z,10.70
2019-02-07T13:20:25.126Z,16.20
2019-02-07T13:21:25.026Z,14.10
2019-02-07T13:22:24.983Z,11.50
2019-02-07T13:23:24.991Z,14.30
2019-02-07T13:24:25.113Z,12.40
2019-02-07T13:25:24.876Z,11.30
2019-02-07T13:26:24.961Z,12.60
2019-02-07T13:27:24.823Z,11.60
2019-02-07T13:28:24.954Z,10.00
2019-02-07T13:29:24.847Z,11.20
2019-02-07T13:30:24.716Z,11.40
2019-02-07T13:31:24.765Z,13.30
2019-02-07T13:32:24.787Z,8.60
2019-02-07T13:33:24.588Z,10.00
2019-02-07T13:34:24.537Z,9.20
2019-02-07T13:35:24.527Z,8.90
2019-02-07T13:36:24.445Z,14.40
2019-02-07T13:37:24.420Z,11.50
2019-02-07T13:38:24.356Z,12.00
2019-02-07T13:39:24.317Z,11.70
2019-02-07T13:40:24.280Z,11.10
2019-02-07T13:41:24.235Z,11.60
2019-02-07T13:42:24.192Z,13.80
2019-02-07T13:43:24.160Z,10.40
2019-02-07T13:44:24.117Z,9.60
2019-02-07T13:45:24.076Z,13.00
2019-02-07T13:46:24.034Z,12.30
2019-02-07T13:47:23.994Z,10.70
2019-02-07T13:48:24.435Z,11.10
2019-02-07T13:49:23.942Z,13.70
2019-02-07T13:50:23.888Z,12.00
2019-02-07T13:51:23.846Z,10.90
2019-02-07T13:52:23.803Z,9.20
2019-02-07T13:53:23.760Z,8.20
2019-02-07T13:54:23.721Z,12.90
2019-02-07T13:55:23.681Z,10.20
2019-02-07T13:56:23.646Z,12.40
2019-02-07T13:57:23.606Z,6.80
2019-02-07T13:58:23.569Z,9.80
2019-02-07T13:59:23.526Z,10.60
2019-02-07T14:00:23.605Z,10.10
2019-02-07T14:01:23.449Z,12.30
2019-02-07T14:02:23.421Z,9.20
2019-02-07T14:03:23.378Z,8.80
2019-02-07T14:04:23.331Z,10.70
2019-02-07T14:05:23.288Z,10.20
2019-02-07T14:06:23.250Z,11.60
2019-02-07T14:07:23.213Z,10.70
2019-02-07T14:08:23.174Z,7.80
2019-02-07T14:09:23.136Z,10.40
2019-02-07T14:10:23.099Z,8.50
2019-02-07T14:11:23.057Z,8.00
2019-02-07T14:12:23.052Z,9.60
2019-02-07T14:13:22.971Z,11.10
2019-02-07T14:14:22.929Z,8.00
2019-02-07T14:15:22.895Z,10.90
2019-02-07T14:16:22.858Z,9.20
2019-02-07T14:17:22.813Z,11.10
2019-02-07T14:18:22.771Z,11.20
2019-02-07T14:19:22.738Z,9.40
2019-02-07T14:20:22.695Z,6.40
2019-02-07T14:21:22.658Z,8.90
2019-02-07T14:22:22.619Z,12.40
2019-02-07T14:23:22.586Z,11.90
2019-02-07T14:24:22.538Z,10.40
2019-02-07T14:25:22.501Z,11.70
2019-02-07T14:26:22.457Z,10.20
2019-02-07T14:27:22.418Z,12.60
2019-02-07T14:28:22.379Z,9.90
2019-02-07T14:29:22.341Z,12.90
2019-02-07T14:30:22.306Z,10.40
2019-02-07T14:31:22.260Z,11.00
2019-02-07T14:32:22.221Z,13.60
2019-02-07T14:33:22.182Z,9.00
2019-02-07T14:34:22.159Z,10.00
2019-02-07T14:35:22.108Z,11.70
2019-02-07T14:36:22.066Z,10.00
2019-02-07T14:37:22.024Z,11.00
2019-02-07T14:38:21.981Z,10.00
2019-02-07T14:39:21.942Z,8.80
2019-02-07T14:40:21.907Z,10.80
2019-02-07T14:41:21.868Z,8.00
2019-02-07T14:42:21.831Z,11.50
2019-02-07T14:43:21.791Z,11.30
2019-02-07T14:44:21.749Z,9.20
2019-02-07T14:45:21.710Z,7.70
2019-02-07T14:46:21.684Z,11.10
2019-02-07T14:47:21.631Z,9.90
2019-02-07T14:48:21.590Z,8.60
2019-02-07T14:49:21.551Z,10.00
2019-02-07T14:50:21.507Z,11.00